Terminal Aerodrome Forecast
Issued by NWS Norman, OK

Home | Current Version | Previous Version | Text Only | Print | Product List | Glossary On
Versions: 1 2 3 4 5 6 7 8 9 10 11 12 13 14 15 16 17 18 19 20 21 22 23 24 25 26 27 28 29 30 31 32
747
FTUS44 KOUN 290932 AAA
TAFSPS
TAF AMD
KSPS 290932Z 2910/3006 05014G23KT P6SM SCT010 BKN040
     FM291100 30010KT P6SM BKN010
      TEMPO 2911/2914 4SM BR
     FM291600 22011KT P6SM BKN030
     FM292100 29015KT P6SM BKN040=

USA.gov is the U.S. government's official web portal to all federal, state and local government web resources and services.